Strona główna
METAR-TAF:

METAR-TAF

Lotnisko :

Twin County Airport

Galax / Hillsville, Wirginia, Stany Zjednoczone

Szerokość geograficzna: 36-46N, Długość geograficzna: 080-49W, wysokość: 834 m

Aktualna obserwacja pogody

Raport powstał 11 minut temu, godzina 20:15 UTC
Wiatr 3 kt od północno-północny wschód
Temperatura 9°C
Wilgotność 53%
Ciśnienie 1025 hPa
Widzialność: 16.1 km
Rozproszone chmury na wysokości 4000 ft

METAR: KHLX 072015Z AUTO 03003KT 10SM SCT040 09/00 A3026 RMK AO2 T00921005

czas: 15:26 (20:26 UTC)


TAF: brakujący

Obserwacja i prognoza pogody dla ponad 4000 lotnisk (raport METAR i TAF).

Dostępne stacje oznaczono żółtymi i czerwonymi punktami na mapie.

Najedź kursorem aby zobaczyć nazwę stacji.

Kliknij aby zobaczyć obserwacje i prognozy pogody.

Aby zmienić mapę: kliknij na zielony przycisk z czarnym krzyżykiem, aby powiększyć; na zielony przycisk z myślnikiem, aby pomniejszyć; na zielone strzałki, aby przejść do map sąsiednich.


METAR-TAF: